首页
METAR-TAF:

METAR-TAF

机场 :

奧爾德尼島,

纬度: 49-43N, 经度: 002-12W, 海拔: 71米

当前天气观测

该预报发布于1小时和33分钟前的17:20 UTC
风速6节,风向北转西北
温度 19°C
湿度 83%
气压 1022 hPa
能见度10公里或以上
1500米以下无云,无积雨云

METAR: EGJA 221720Z 34006KT CAVOK 19/16 Q1022

时间: 19:53 (18:53 UTC)

预报

该预报发布于4小时和48分钟前的14:05 UTC
预报有效从22日的 15点(UTC)到 23日的 00点(UTC)
风速5节,风向西转西南
能见度10公里或以上
少量云层低于100英尺
几率 30% :
短暂存在
从 22日的 15点(UTC)到 22日的 18点(UTC)
能見度: 0500
多云层低于100英尺
碎片雾
成为
从 22日的 16点(UTC)到 22日的 18点(UTC)
风速10节,风向北转东北

TAF: EGJA 221405Z 2215/2300 24005KT 9999 FEW000 PROB30 TEMPO 2215/2218 0500 BCFG BKN000 BECMG 2216/2218 02010KT

超过4000个机场的气象观测和天气预报(METAR&TAF报告)。

可查询的气象台以黄色和红色小点在地图上表示。

将鼠标移到小点上方,可查看气象台名称。

然后点击查看天气观测和预报。

如需切换地图:点击带黑十字的绿色按钮放大地图;点击带横线的绿色按钮缩小地图;或者点击绿色箭头查看邻近地区的地图。


METAR-TAF: